Skip Navigation LinksHome page > Weather > Current weather Skip Navigation Links

Current Weather

General Mitchell International, Milwaukee

For information only: do not use for flight planning or navigation.
Latest weather
Observation time Wednesday, October 27, 2021 1:25 AM CDT
Local time Wednesday, October 27, 2021 1:43 AM CDT
Flight conditions Visual Meteorological Conditions
Winds
Wind direction East (80°)
Wind speed 7 mph
Visibility 10 mi.
Sky condition
Ceiling unlimited
Cloud layer scattered clouds 2,400 ft.
Temperature 47°F
Dewpoint 39°F
Altimeter 30.04 in.Hg
Derived measurements
Relative humidity 74%
Wind chill 44°F
Density altitude -98 ft.
Remarks
Automated weather observing station with precipitation discriminator.
METAR KMKE 270625Z 08006KT 10SM SCT024 08/04 A3004 RMK AO2 T00830039

Settings

Location code

InnerDrive.Weather 4.0.6770.0 Release CLR 4.0.30319.42000
Copyright ©2018 Inner Drive Technology. All rights reserved. Portions Copyright ©1986-2018 David Braverman.

Find weather

Site navigation


Skip Navigation Links

Place info

Page info

PayPal - The safer, easier way to pay online!

Return home.

Copyright ©2021 Inner Drive Technology. Purveyors of fine, hand-crafted computer software. Page printed 2021-10-27T06:43:05 UTC.